createdAt,value
2022-11-28T00:04:15.837Z,81.88
2022-11-28T00:09:20.973Z,81.91
2022-11-28T00:14:25.251Z,83.21
2022-11-28T00:19:29.192Z,84.62
2022-11-28T00:24:31.758Z,81.90
2022-11-28T00:29:35.715Z,80.94
2022-11-28T00:34:38.261Z,85.32
2022-11-28T00:39:40.865Z,88.04
2022-11-28T00:44:44.887Z,87.04
2022-11-28T00:49:47.519Z,84.06
2022-11-28T00:54:50.263Z,90.51
2022-11-28T00:59:54.188Z,88.95
2022-11-28T01:04:56.763Z,87.18
2022-11-28T01:09:59.292Z,85.80
2022-11-28T01:15:03.947Z,84.65
2022-11-28T01:20:08.686Z,84.81
2022-11-28T01:25:12.494Z,84.42
2022-11-28T01:30:16.771Z,82.35
2022-11-28T01:35:19.606Z,85.89
2022-11-28T01:40:22.627Z,83.84
2022-11-28T01:45:30.870Z,84.14
2022-11-28T01:50:36.057Z,83.09
2022-11-28T01:55:43.977Z,83.74
2022-11-28T02:00:49.883Z,86.66
2022-11-28T02:05:53.636Z,85.28
2022-11-28T02:11:22.860Z,83.04
2022-11-28T02:16:49.120Z,82.63
2022-11-28T02:22:01.425Z,83.81
2022-11-28T02:27:25.035Z,84.54
2022-11-28T02:32:38.064Z,86.23
2022-11-28T02:37:49.467Z,83.66
2022-11-28T02:43:03.644Z,87.63
2022-11-28T02:48:12.227Z,86.37
2022-11-28T02:53:17.587Z,84.32
2022-11-28T02:58:20.207Z,84.21
2022-11-28T03:03:49.498Z,83.68
2022-11-28T03:09:07.327Z,82.13
2022-11-28T03:14:20.966Z,81.55
2022-11-28T03:19:31.298Z,83.07
2022-11-28T03:24:38.801Z,83.86
2022-11-28T03:29:45.211Z,84.13
2022-11-28T03:34:54.917Z,87.59
2022-11-28T03:40:03.406Z,85.60
2022-11-28T03:45:09.810Z,84.81
2022-11-28T03:50:18.824Z,84.63
2022-11-28T03:55:24.582Z,84.95
2022-11-28T04:00:27.504Z,81.93
2022-11-28T04:05:41.910Z,83.79
2022-11-28T04:10:47.085Z,81.40
2022-11-28T04:15:56.862Z,81.76
2022-11-28T04:21:07.341Z,80.24
2022-11-28T04:26:15.670Z,80.31
2022-11-28T04:31:24.969Z,80.95
2022-11-28T04:36:31.280Z,80.79
2022-11-28T04:41:37.045Z,80.95
2022-11-28T04:46:44.164Z,82.73
2022-11-28T04:51:55.435Z,84.34
2022-11-28T04:57:03.443Z,89.69
2022-11-28T05:02:07.300Z,85.97
2022-11-28T05:07:11.300Z,86.27
2022-11-28T05:12:13.868Z,85.41
2022-11-28T05:17:16.417Z,84.92
2022-11-28T05:22:20.314Z,84.38
2022-11-28T05:27:22.920Z,89.30
2022-11-28T05:32:25.500Z,86.05
2022-11-28T05:37:29.619Z,83.40
2022-11-28T05:42:33.848Z,83.13
2022-11-28T05:47:36.440Z,84.23
2022-11-28T05:52:40.528Z,84.41
2022-11-28T05:57:43.074Z,83.07
2022-11-28T06:02:45.778Z,86.84
2022-11-28T06:07:49.747Z,86.76
2022-11-28T06:12:52.353Z,84.20
2022-11-28T06:17:54.970Z,85.16
2022-11-28T06:22:59.053Z,83.91
2022-11-28T06:28:01.615Z,84.08
2022-11-28T06:33:04.205Z,82.72
2022-11-28T06:38:14.033Z,82.91
2022-11-28T06:43:17.166Z,88.96
2022-11-28T06:48:20.153Z,85.52
2022-11-28T06:53:26.140Z,85.55
2022-11-28T06:58:35.147Z,85.04
2022-11-28T07:03:39.893Z,82.99
2022-11-28T07:08:44.371Z,82.62
2022-11-28T07:13:47.929Z,85.17
2022-11-28T07:18:50.964Z,85.84
2022-11-28T07:23:55.120Z,86.97
2022-11-28T07:28:59.693Z,87.24
2022-11-28T07:34:04.153Z,87.02
2022-11-28T07:39:09.395Z,87.16
2022-11-28T07:44:13.017Z,86.63
2022-11-28T07:49:16.211Z,86.32
2022-11-28T07:54:20.181Z,87.23
2022-11-28T07:59:22.809Z,87.82
2022-11-28T08:04:25.653Z,90.51
2022-11-28T08:09:29.658Z,87.47
2022-11-28T08:14:32.341Z,87.31
2022-11-28T08:19:35.580Z,87.45
2022-11-28T08:24:41.226Z,86.33
2022-11-28T08:29:46.162Z,85.68
2022-11-28T08:34:51.803Z,85.44
2022-11-28T08:39:55.746Z,83.87
2022-11-28T08:44:58.387Z,80.24
2022-11-28T08:50:00.955Z,83.07
2022-11-28T08:55:05.979Z,83.20
2022-11-28T09:00:09.479Z,84.52
2022-11-28T09:05:12.097Z,82.43
2022-11-28T09:10:16.207Z,82.12
2022-11-28T09:15:19.246Z,83.17
2022-11-28T09:20:22.203Z,83.35
2022-11-28T09:25:26.356Z,82.14
2022-11-28T09:30:29.446Z,83.12
2022-11-28T09:35:32.049Z,82.82
2022-11-28T09:40:39.623Z,84.06
2022-11-28T09:45:42.911Z,85.39
2022-11-28T09:50:47.703Z,85.21
2022-11-28T09:55:55.588Z,83.00
2022-11-28T10:01:08.155Z,81.00
2022-11-28T10:06:20.121Z,81.02
2022-11-28T10:11:36.791Z,79.59
2022-11-28T10:16:52.073Z,78.39
2022-11-28T10:21:59.535Z,79.94
2022-11-28T10:27:05.750Z,80.10
2022-11-28T10:32:12.871Z,78.30
2022-11-28T10:37:20.733Z,80.64
2022-11-28T10:42:29.700Z,79.29
2022-11-28T10:47:48.784Z,79.61
2022-11-28T10:52:59.041Z,78.18
2022-11-28T10:58:12.001Z,75.18
2022-11-28T11:03:18.327Z,74.37
2022-11-28T11:08:23.047Z,73.00
2022-11-28T11:13:29.168Z,75.12
2022-11-28T11:18:36.123Z,74.13
2022-11-28T11:23:38.811Z,75.99
2022-11-28T11:28:46.059Z,74.20
2022-11-28T11:33:51.437Z,75.24
2022-11-28T11:39:06.746Z,76.15
2022-11-28T11:44:34.172Z,75.13
2022-11-28T11:49:39.269Z,74.75
2022-11-28T11:54:56.281Z,75.03
2022-11-28T12:00:04.612Z,74.23
2022-11-28T12:05:16.078Z,75.54
2022-11-28T12:10:22.412Z,75.84
2022-11-28T12:15:36.113Z,76.64
2022-11-28T12:20:49.283Z,74.65
2022-11-28T12:25:58.877Z,75.55
2022-11-28T12:31:16.394Z,73.87
2022-11-28T12:36:26.953Z,74.10
2022-11-28T12:41:54.812Z,73.97
2022-11-28T12:47:05.993Z,74.70
2022-11-28T12:52:18.290Z,73.75
2022-11-28T12:57:33.431Z,74.42
2022-11-28T13:02:51.913Z,73.56
2022-11-28T13:08:13.237Z,77.48
2022-11-28T13:13:21.002Z,76.79
2022-11-28T13:18:35.557Z,75.21
2022-11-28T13:23:44.672Z,76.91
2022-11-28T13:28:53.695Z,76.69
2022-11-28T13:33:58.772Z,77.16
2022-11-28T13:39:12.923Z,76.63
2022-11-28T13:44:22.705Z,76.53
2022-11-28T13:49:29.645Z,77.59
2022-11-28T13:54:35.572Z,75.76
2022-11-28T13:59:39.538Z,76.13
2022-11-28T14:04:47.873Z,77.59
2022-11-28T14:10:02.161Z,76.22
2022-11-28T14:15:15.517Z,76.89
2022-11-28T14:20:31.076Z,77.72
2022-11-28T14:25:39.931Z,80.55
2022-11-28T14:30:45.427Z,79.01
2022-11-28T14:36:34.016Z,79.98
2022-11-28T14:42:10.783Z,80.95
2022-11-28T14:47:17.367Z,82.53
2022-11-28T14:52:38.366Z,81.47
2022-11-28T14:57:59.007Z,81.77
2022-11-28T15:09:05.490Z,82.13
2022-11-28T15:14:20.574Z,81.25
2022-11-28T15:19:27.057Z,79.51
2022-11-28T15:24:33.054Z,77.52
2022-11-28T15:29:36.846Z,75.99
2022-11-28T15:34:39.944Z,76.67
2022-11-28T15:39:47.516Z,76.35
2022-11-28T15:44:55.740Z,75.86
2022-11-28T15:50:03.956Z,75.85
2022-11-28T15:55:17.513Z,74.94
2022-11-28T16:00:22.103Z,75.73
2022-11-28T16:05:24.606Z,77.59
2022-11-28T16:10:33.583Z,78.03
2022-11-28T16:15:37.257Z,76.81
2022-11-28T16:20:39.933Z,77.13
2022-11-28T16:25:44.090Z,76.01
2022-11-28T16:30:51.136Z,75.35
2022-11-28T16:35:55.759Z,74.88
2022-11-28T16:41:01.643Z,75.19
2022-11-28T16:46:07.398Z,75.80
2022-11-28T16:51:32.658Z,76.10
2022-11-28T16:56:45.212Z,76.38
2022-11-28T17:01:52.634Z,75.67
2022-11-28T17:06:57.441Z,78.17
2022-11-28T17:12:05.818Z,77.78
2022-11-28T17:17:13.297Z,76.58
2022-11-28T17:22:18.195Z,77.15
2022-11-28T17:27:22.176Z,77.03
2022-11-28T17:32:25.216Z,80.92
2022-11-28T17:37:27.864Z,79.89
2022-11-28T17:42:31.941Z,78.62
2022-11-28T17:47:34.581Z,80.16
2022-11-28T17:52:37.301Z,81.05
2022-11-28T17:57:42.300Z,85.54
2022-11-28T18:02:45.005Z,85.53
2022-11-28T18:07:47.712Z,83.71
2022-11-28T18:12:52.365Z,81.70
2022-11-28T18:17:54.812Z,81.10
2022-11-28T18:22:58.307Z,81.12
2022-11-28T18:28:02.250Z,81.40
2022-11-28T18:33:05.008Z,81.18
2022-11-28T18:38:09.021Z,81.45
2022-11-28T18:43:13.198Z,82.06
2022-11-28T18:48:15.745Z,81.04
2022-11-28T18:53:18.403Z,80.33
2022-11-28T18:58:22.370Z,79.73
2022-11-28T19:03:24.921Z,79.49
2022-11-28T19:08:27.657Z,80.32
2022-11-28T19:13:31.565Z,79.90
2022-11-28T19:18:34.205Z,80.60
2022-11-28T19:23:36.796Z,80.18
2022-11-28T19:28:42.227Z,80.12
2022-11-28T19:33:45.394Z,79.83
2022-11-28T19:38:48.031Z,80.00
2022-11-28T19:43:52.615Z,80.82
2022-11-28T19:48:55.161Z,81.13
2022-11-28T19:54:03.144Z,81.73
2022-11-28T19:59:07.747Z,83.46
2022-11-28T20:04:10.873Z,82.65
2022-11-28T20:09:14.267Z,83.87
2022-11-28T20:14:19.427Z,84.29
2022-11-28T20:19:22.803Z,83.96
2022-11-28T20:24:25.835Z,85.77
2022-11-28T20:29:29.855Z,86.59
2022-11-28T20:34:32.843Z,88.96
2022-11-28T20:39:35.435Z,87.47
2022-11-28T20:44:39.391Z,86.29
2022-11-28T20:49:42.268Z,90.44
2022-11-28T20:54:45.130Z,91.29
2022-11-28T20:59:49.134Z,93.64
2022-11-28T21:04:51.776Z,92.37
2022-11-28T21:10:00.840Z,91.83
2022-11-28T21:15:05.464Z,90.83
2022-11-28T21:20:08.486Z,89.30
2022-11-28T21:25:11.084Z,91.03
2022-11-28T21:30:15.210Z,89.84
2022-11-28T21:35:17.817Z,88.83
2022-11-28T21:40:20.554Z,87.83
2022-11-28T21:45:24.857Z,87.42
2022-11-28T21:50:27.667Z,89.24
2022-11-28T21:55:30.272Z,90.23
2022-11-28T22:00:52.586Z,89.35
2022-11-28T22:06:01.069Z,90.42
2022-11-28T22:11:04.903Z,91.65
2022-11-28T22:16:14.817Z,88.83
2022-11-28T22:26:40.410Z,87.49
2022-11-28T22:31:44.590Z,88.49
2022-11-28T22:36:47.202Z,86.85
2022-11-28T22:41:49.889Z,86.80
2022-11-28T22:46:53.924Z,88.10
2022-11-28T22:51:56.780Z,88.21
2022-11-28T22:56:59.955Z,88.67
2022-11-28T23:02:04.173Z,88.32
2022-11-28T23:07:06.841Z,87.50
2022-11-28T23:12:09.578Z,85.41
2022-11-28T23:17:13.670Z,85.35
2022-11-28T23:22:16.260Z,86.80
2022-11-28T23:27:18.871Z,86.90
2022-11-28T23:32:22.782Z,86.30
2022-11-28T23:37:25.546Z,85.84
2022-11-28T23:42:28.196Z,85.85
2022-11-28T23:47:32.555Z,85.51
2022-11-28T23:52:35.144Z,85.33
2022-11-28T23:57:37.720Z,85.91
